Time;durP1;ratioP1;P1;durP2;ratioP2;P2;SDS_P1;SDS_P2;PMS_P1;PMS_P2;Temp;Humidity;BMP_temperature;BMP_pressure;BME280_temperature;BME280_humidity;BME280_pressure;Samples;Min_cycle;Max_cycle;Signal;HPM_P1;HPM_P2
2022/07/13 00:01:04;;;;;;;1.25;0.80;;;;;;;22.97;33.40;100013.03;4493901;31;34507;-60
2022/07/13 00:03:32;;;;;;;3.65;1.15;;;;;;;23.05;33.13;100020.28;4493196;31;34055;-60
2022/07/13 00:06:00;;;;;;;3.58;0.82;;;;;;;23.02;33.31;100014.16;4496156;31;35013;-60
2022/07/13 00:08:28;;;;;;;3.25;0.90;;;;;;;22.92;33.62;100013.59;4497490;31;32138;-62
2022/07/13 00:10:55;;;;;;;1.37;0.80;;;;;;;22.91;33.52;100017.31;4487181;31;32261;-63
2022/07/13 00:13:23;;;;;;;1.92;1.00;;;;;;;22.82;34.36;100013.00;4496801;31;34101;-62
2022/07/13 00:15:50;;;;;;;0.82;0.60;;;;;;;22.75;34.29;100009.31;4497420;31;33931;-64
2022/07/13 00:18:18;;;;;;;2.75;0.88;;;;;;;22.89;34.26;100015.81;4492666;31;32699;-61
2022/07/13 00:20:47;;;;;;;1.48;0.80;;;;;;;22.73;34.34;100014.97;4497988;31;33788;-61
2022/07/13 00:23:14;;;;;;;1.73;0.80;;;;;;;22.72;34.52;100013.25;4492049;31;33828;-62
2022/07/13 00:25:42;;;;;;;1.95;0.82;;;;;;;22.78;34.17;100012.53;4485790;31;34964;-61
2022/07/13 00:28:09;;;;;;;3.75;1.00;;;;;;;22.66;34.28;100008.56;4490140;31;33049;-61
2022/07/13 00:30:37;;;;;;;2.15;0.75;;;;;;;22.64;34.27;100007.91;4486313;31;33397;-62
2022/07/13 00:33:05;;;;;;;1.75;0.90;;;;;;;22.67;34.23;100006.69;4494051;31;34249;-60
2022/07/13 00:35:33;;;;;;;3.97;1.00;;;;;;;22.58;34.79;100010.53;4496404;31;33216;-60
2022/07/13 00:38:00;;;;;;;1.83;0.90;;;;;;;22.70;34.47;100009.06;4495172;31;33585;-61
2022/07/13 00:40:28;;;;;;;2.28;0.98;;;;;;;22.44;34.66;99998.56;4490615;31;32711;-62
2022/07/13 00:42:57;;;;;;;2.50;1.00;;;;;;;22.51;34.16;99994.06;4492912;31;32808;-59
2022/07/13 00:45:25;;;;;;;1.65;0.88;;;;;;;22.51;34.37;99994.91;4484180;31;34020;-61
2022/07/13 00:47:53;;;;;;;2.15;0.90;;;;;;;22.49;34.43;99994.25;4486450;31;33642;-61
2022/07/13 00:50:21;;;;;;;2.22;0.98;;;;;;;22.61;34.10;99991.06;4495308;31;33867;-61
2022/07/13 00:52:49;;;;;;;3.47;0.90;;;;;;;22.56;33.97;99986.16;4485421;31;34625;-59
2022/07/13 00:55:18;;;;;;;3.60;1.05;;;;;;;22.66;34.61;99992.19;4487530;31;33869;-61
2022/07/13 00:57:46;;;;;;;3.80;1.00;;;;;;;22.65;34.48;99982.31;4494167;31;33746;-61
2022/07/13 01:00:14;;;;;;;2.62;1.20;;;;;;;22.63;34.36;99987.13;4485018;31;32834;-59
2022/07/13 01:02:44;;;;;;;2.78;1.05;;;;;;;22.60;34.42;99987.50;4486811;31;32748;-60
2022/07/13 01:05:13;;;;;;;3.90;1.12;;;;;;;22.35;34.76;99980.59;4492640;31;34309;-60
2022/07/13 01:07:41;;;;;;;1.87;1.05;;;;;;;22.28;35.08;99978.63;4494251;31;34159;-61
2022/07/13 01:10:11;;;;;;;5.22;0.93;;;;;;;22.33;35.28;99983.50;4492522;31;31888;-60
2022/07/13 01:12:40;;;;;;;5.93;1.12;;;;;;;22.38;35.73;99989.25;4490775;31;33893;-60
2022/07/13 01:15:09;;;;;;;2.47;0.98;;;;;;;22.36;36.14;99988.59;4493171;31;34030;-60
2022/07/13 01:17:37;;;;;;;1.62;0.90;;;;;;;22.43;36.19;99988.69;4490243;31;33633;-63
2022/07/13 01:20:06;;;;;;;2.70;1.20;;;;;;;22.45;36.21;99979.28;4494967;31;35434;-61
2022/07/13 01:22:38;;;;;;;3.97;1.45;;;;;;;22.41;36.20;99988.03;4481532;31;33578;-61
2022/07/13 01:25:06;;;;;;;3.70;1.05;;;;;;;22.38;35.95;99975.63;4492844;31;34915;-61
2022/07/13 01:27:36;;;;;;;3.12;1.10;;;;;;;22.10;36.73;99981.62;4495001;31;34669;-58
2022/07/13 01:30:05;;;;;;;2.30;1.10;;;;;;;22.16;36.88;99971.91;4494784;31;34784;-59
2022/07/13 01:32:51;;;;;;;3.53;1.30;;;;;;;22.08;37.00;99967.31;4496879;31;33845;-61
2022/07/13 01:35:22;;;;;;;4.70;1.55;;;;;;;22.22;36.60;99978.50;4490544;31;32966;-61
2022/07/13 01:37:50;;;;;;;3.15;1.25;;;;;;;22.10;36.92;99976.19;4496443;31;33679;-60
2022/07/13 01:40:17;;;;;;;3.42;1.35;;;;;;;22.12;37.28;99972.41;4494059;31;34847;-59
2022/07/13 01:42:47;;;;;;;3.12;1.20;;;;;;;22.03;37.11;99974.38;4497469;31;32757;-59
2022/07/13 01:45:18;;;;;;;3.53;1.58;;;;;;;22.00;37.35;99967.41;4495766;31;34828;-59
2022/07/13 01:47:49;;;;;;;4.78;1.60;;;;;;;21.88;37.18;99963.41;4495961;31;34382;-59
2022/07/13 01:50:18;;;;;;;3.60;1.42;;;;;;;21.77;37.11;99963.87;4494957;31;32546;-61
2022/07/13 01:52:47;;;;;;;2.75;1.25;;;;;;;21.66;36.90;99967.84;4492315;31;32900;-60
2022/07/13 01:55:15;;;;;;;6.68;1.85;;;;;;;21.19;38.00;99955.19;4495554;31;34973;-59
2022/07/13 01:57:43;;;;;;;5.35;2.08;;;;;;;21.46;37.23;99955.72;4498411;31;32384;-61
2022/07/13 02:00:14;;;;;;;3.10;1.50;;;;;;;21.49;37.16;99958.94;4491938;31;35085;-58
2022/07/13 02:02:41;;;;;;;4.72;1.70;;;;;;;21.36;37.50;99958.69;4496613;31;33557;-60
2022/07/13 02:05:11;;;;;;;4.30;1.90;;;;;;;21.42;37.70;99957.97;4496445;31;33829;-61
2022/07/13 02:07:39;;;;;;;2.80;1.40;;;;;;;21.52;37.59;99958.56;4490002;31;34804;-62
2022/07/13 02:10:08;;;;;;;4.25;1.90;;;;;;;21.67;37.45;99960.50;4492149;31;34279;-61
2022/07/13 02:12:38;;;;;;;6.28;2.22;;;;;;;21.68;37.32;99959.50;4496674;31;34500;-60
2022/07/13 02:15:07;;;;;;;3.67;1.80;;;;;;;21.63;37.69;99951.84;4495766;31;34127;-61
2022/07/13 02:17:35;;;;;;;5.85;2.47;;;;;;;21.61;37.76;99952.06;4495023;31;33312;-62
2022/07/13 02:20:08;;;;;;;6.75;2.42;;;;;;;21.43;38.15;99959.66;4494765;31;33967;-63
2022/07/13 02:22:40;;;;;;;5.68;2.65;;;;;;;21.43;37.87;99962.37;4495179;31;33772;-60
2022/07/13 02:25:09;;;;;;;7.00;2.83;;;;;;;21.47;37.83;99963.69;4493837;31;34203;-60
2022/07/13 02:27:41;;;;;;;4.85;1.85;;;;;;;21.51;38.04;99954.16;4497916;31;33245;-59
2022/07/13 02:30:11;;;;;;;7.07;2.97;;;;;;;21.60;37.85;99953.09;4496747;31;32439;-60
2022/07/13 02:32:42;;;;;;;5.78;2.33;;;;;;;21.47;37.93;99960.12;4494103;31;32848;-59
2022/07/13 02:35:11;;;;;;;8.25;3.10;;;;;;;21.35;37.96;99951.56;4493230;31;34176;-61
2022/07/13 02:37:40;;;;;;;6.22;2.80;;;;;;;21.48;37.93;99954.53;4497247;31;33547;-60
2022/07/13 02:40:09;;;;;;;6.85;3.08;;;;;;;21.20;38.50;99947.84;4494158;31;34960;-59
2022/07/13 02:42:45;;;;;;;8.52;3.12;;;;;;;21.39;38.23;99951.00;4484271;31;33683;-59
2022/07/13 02:45:13;;;;;;;5.97;2.87;;;;;;;21.44;38.28;99949.59;4486062;31;33153;-59
2022/07/13 02:47:41;;;;;;;7.53;3.50;;;;;;;21.37;37.93;99952.19;4497513;31;34598;-62
2022/07/13 02:50:09;;;;;;;5.35;2.50;;;;;;;21.15;38.52;99946.53;4495446;31;34754;-62
2022/07/13 02:52:37;;;;;;;7.28;3.58;;;;;;;21.09;38.65;99944.50;4496654;31;33930;-59
2022/07/13 02:55:05;;;;;;;6.30;3.08;;;;;;;21.23;38.49;99944.78;4493969;31;33990;-61
2022/07/13 02:57:33;;;;;;;7.37;2.78;;;;;;;21.23;38.67;99955.66;4488428;31;33297;-62
2022/07/13 03:00:02;;;;;;;6.68;3.28;;;;;;;20.87;39.53;99951.59;4492103;31;32379;-61
2022/07/13 03:02:30;;;;;;;7.40;2.95;;;;;;;21.03;39.31;99953.38;4492668;31;32605;-62
2022/07/13 03:04:58;;;;;;;6.37;3.22;;;;;;;21.18;39.13;99948.00;4492007;31;35257;-62
2022/07/13 03:07:26;;;;;;;6.12;2.92;;;;;;;21.17;38.78;99951.78;4496232;31;34887;-62
2022/07/13 03:09:54;;;;;;;3.90;2.17;;;;;;;21.24;38.77;99955.47;4489502;31;33917;-59
2022/07/13 03:12:25;;;;;;;7.78;3.12;;;;;;;21.12;39.03;99944.16;4497570;31;34106;-61
2022/07/13 03:14:52;;;;;;;6.90;3.17;;;;;;;21.16;39.19;99953.66;4492319;31;35291;-59
2022/07/13 03:17:20;;;;;;;6.50;2.87;;;;;;;21.22;39.19;99957.53;4495355;31;33371;-59
2022/07/13 03:19:48;;;;;;;7.93;3.70;;;;;;;21.10;39.43;99940.75;4495659;31;35027;-61
2022/07/13 03:22:15;;;;;;;6.07;2.90;;;;;;;21.07;39.62;99956.59;4496746;31;35017;-59
2022/07/13 03:24:43;;;;;;;6.53;3.08;;;;;;;21.02;40.08;99957.09;4493757;31;34169;-59
2022/07/13 03:27:11;;;;;;;9.25;3.45;;;;;;;21.12;39.73;99949.59;4496305;31;34500;-60
2022/07/13 03:29:38;;;;;;;6.20;2.50;;;;;;;20.91;39.92;99958.34;4497710;31;32776;-59
2022/07/13 03:32:06;;;;;;;6.90;3.03;;;;;;;21.03;39.96;99956.09;4485372;31;34889;-61
2022/07/13 03:34:35;;;;;;;7.82;3.08;;;;;;;21.00;40.41;99955.63;4496065;31;32572;-60
2022/07/13 03:37:03;;;;;;;7.53;3.08;;;;;;;20.97;40.98;99967.69;4496138;31;33336;-63
2022/07/13 03:39:31;;;;;;;14.35;2.78;;;;;;;21.20;40.55;99956.03;4496584;31;33831;-61
2022/07/13 03:41:59;;;;;;;8.57;3.42;;;;;;;21.06;40.64;99966.62;4495996;31;33913;-60
2022/07/13 03:44:27;;;;;;;6.07;2.45;;;;;;;21.29;39.83;99961.25;4497427;31;35130;-74
2022/07/13 03:46:54;;;;;;;8.95;3.55;;;;;;;21.25;40.12;99961.75;4497957;31;33470;-61
2022/07/13 03:49:22;;;;;;;7.57;2.95;;;;;;;21.21;40.08;99953.09;4495445;31;33424;-67
2022/07/13 03:51:50;;;;;;;5.70;2.55;;;;;;;21.32;39.66;99960.03;4494956;31;34128;-63
2022/07/13 03:54:18;;;;;;;5.85;2.50;;;;;;;21.45;39.76;99959.50;4496625;31;34370;-62
2022/07/13 03:56:46;;;;;;;4.62;2.10;;;;;;;21.74;38.83;99958.78;4498928;31;34602;-61
2022/07/13 03:59:14;;;;;;;5.97;2.75;;;;;;;21.83;38.54;99969.44;4494927;31;33668;-63
2022/07/13 04:01:42;;;;;;;8.27;2.60;;;;;;;21.80;38.90;99971.66;4496777;31;32820;-59
2022/07/13 04:04:10;;;;;;;6.18;2.67;;;;;;;21.81;39.20;99974.19;4495412;31;33444;-64
2022/07/13 04:06:39;;;;;;;9.00;2.83;;;;;;;21.89;39.20;99972.44;4495569;31;33645;-59
2022/07/13 04:09:06;;;;;;;4.95;2.37;;;;;;;21.70;38.71;99968.31;4494492;31;34687;-61
2022/07/13 04:11:34;;;;;;;4.32;1.87;;;;;;;22.13;38.19;99969.50;4496393;31;35041;-62
2022/07/13 04:14:02;;;;;;;6.18;1.83;;;;;;;22.21;37.40;99955.81;4497953;31;32957;-60
2022/07/13 04:16:29;;;;;;;6.43;2.45;;;;;;;22.29;37.55;99958.50;4496070;31;33497;-60
2022/07/13 04:18:57;;;;;;;4.28;1.77;;;;;;;22.37;37.38;99956.69;4495391;31;34884;-59
2022/07/13 04:21:26;;;;;;;3.87;1.40;;;;;;;22.05;37.91;99959.53;4495764;31;33834;-60
2022/07/13 04:23:54;;;;;;;3.87;1.27;;;;;;;22.17;37.37;99953.66;4488745;31;34030;-62
2022/07/13 04:26:22;;;;;;;4.28;1.33;;;;;;;22.02;36.97;99951.72;4496699;31;33557;-62
2022/07/13 04:28:50;;;;;;;3.00;1.30;;;;;;;22.25;36.51;99956.31;4498484;31;34014;-60
2022/07/13 04:31:17;;;;;;;8.30;1.67;;;;;;;22.25;36.57;99959.91;4495758;31;33913;-59
2022/07/13 04:33:46;;;;;;;2.50;1.40;;;;;;;22.05;37.25;99959.53;4496615;31;33710;-60
2022/07/13 04:36:13;;;;;;;3.90;1.42;;;;;;;21.81;37.38;99951.56;4491399;31;32472;-60
2022/07/13 04:38:41;;;;;;;3.33;1.42;;;;;;;21.85;37.09;99948.28;4499681;31;34713;-61
2022/07/13 04:41:11;;;;;;;3.60;1.50;;;;;;;22.16;37.31;99962.87;4492527;31;34382;-59
2022/07/13 04:43:38;;;;;;;4.65;1.50;;;;;;;22.27;37.68;99955.09;4498671;31;34184;-62
2022/07/13 04:46:07;;;;;;;2.35;1.23;;;;;;;21.82;37.17;99956.81;4496389;31;33573;-60
2022/07/13 04:48:35;;;;;;;3.72;1.20;;;;;;;21.74;36.99;99947.87;4495659;31;34256;-59
2022/07/13 04:51:03;;;;;;;2.97;1.20;;;;;;;21.70;37.34;99955.56;4495012;31;34982;-59
2022/07/13 04:53:30;;;;;;;1.35;1.00;;;;;;;22.02;36.91;99957.19;4497202;31;34207;-60
2022/07/13 04:55:58;;;;;;;4.75;1.62;;;;;;;22.04;37.12;99960.56;4493861;31;32118;-59
2022/07/13 04:58:26;;;;;;;2.95;1.20;;;;;;;21.53;37.28;99954.81;4490345;31;34863;-61
2022/07/13 05:00:53;;;;;;;4.55;1.23;;;;;;;22.00;36.58;99966.56;4495343;31;35154;-61
2022/07/13 05:03:41;;;;;;;4.60;1.40;;;;;;;22.35;36.55;99966.97;4485994;31;34102;-63
2022/07/13 05:06:09;;;;;;;4.12;1.25;;;;;;;22.04;36.18;99957.81;4490949;31;33511;-63
2022/07/13 05:08:37;;;;;;;3.33;1.20;;;;;;;21.75;37.17;99968.63;4498830;31;32602;-61
2022/07/13 05:11:05;;;;;;;2.50;1.15;;;;;;;21.84;36.83;99968.38;4492062;31;34058;-62
2022/07/13 05:13:33;;;;;;;3.87;1.62;;;;;;;22.08;36.04;99966.47;4493269;31;32069;-62
2022/07/13 05:16:00;;;;;;;2.95;1.20;;;;;;;22.10;36.67;99962.53;4495894;31;31161;-63
2022/07/13 05:18:29;;;;;;;2.62;1.30;;;;;;;22.21;35.98;99969.47;4496034;31;33855;-63
2022/07/13 05:20:57;;;;;;;3.58;1.23;;;;;;;22.13;36.53;99968.69;4496998;31;32851;-65
2022/07/13 05:23:25;;;;;;;4.45;1.45;;;;;;;21.91;36.72;99965.78;4497115;31;32834;-63
2022/07/13 05:25:53;;;;;;;2.50;1.25;;;;;;;21.84;36.86;99971.13;4486284;31;32475;-61
2022/07/13 05:28:21;;;;;;;2.25;1.33;;;;;;;21.78;36.82;99969.13;4488150;31;31921;-61
2022/07/13 05:30:49;;;;;;;4.15;1.30;;;;;;;22.00;36.44;99970.13;4496318;31;35094;-63
2022/07/13 05:33:18;;;;;;;3.35;1.40;;;;;;;21.95;35.91;99968.97;4493921;31;33899;-61
2022/07/13 05:35:46;;;;;;;3.90;1.33;;;;;;;22.51;35.10;99972.25;4496633;31;32192;-64
2022/07/13 05:38:14;;;;;;;3.87;1.35;;;;;;;22.59;35.24;99974.03;4497516;31;34658;-61
2022/07/13 05:40:42;;;;;;;5.22;2.08;;;;;;;22.05;36.71;99967.72;4494074;31;33866;-60
2022/07/13 05:43:13;;;;;;;2.65;1.20;;;;;;;22.55;35.89;99974.41;4494339;31;33187;-63
2022/07/13 05:45:42;;;;;;;6.07;1.60;;;;;;;22.41;36.37;99974.41;4498286;31;33742;-61
2022/07/13 05:48:09;;;;;;;4.70;1.50;;;;;;;22.17;36.24;99973.59;4495135;31;32508;-63
2022/07/13 05:50:39;;;;;;;4.75;1.40;;;;;;;22.19;36.25;99979.72;4494903;31;34353;-59
2022/07/13 05:53:07;;;;;;;4.70;1.50;;;;;;;22.45;36.10;99975.72;4494080;31;35186;-61
2022/07/13 05:55:35;;;;;;;4.82;1.60;;;;;;;21.75;37.19;99972.19;4496953;31;34873;-61
2022/07/13 05:58:02;;;;;;;4.90;1.60;;;;;;;22.05;37.12;99966.84;4493858;31;33514;-62
2022/07/13 06:00:30;;;;;;;4.28;1.45;;;;;;;22.12;37.94;99977.84;4492336;31;33657;-61
2022/07/13 06:02:58;;;;;;;4.57;1.65;;;;;;;22.02;36.97;99973.53;4490800;31;34004;-64
2022/07/13 06:05:25;;;;;;;2.95;1.42;;;;;;;22.18;36.72;99972.53;4495506;31;32175;-61
2022/07/13 06:07:53;;;;;;;5.45;1.67;;;;;;;22.39;36.54;99980.03;4487166;31;33754;-61
2022/07/13 06:10:21;;;;;;;3.70;1.45;;;;;;;22.45;35.69;99971.13;4495845;31;33801;-62
2022/07/13 06:12:48;;;;;;;5.60;1.92;;;;;;;22.02;37.52;99967.22;4494906;31;32438;-63
2022/07/13 06:15:16;;;;;;;3.17;1.58;;;;;;;22.41;36.49;99971.69;4494553;31;34755;-61
2022/07/13 06:17:44;;;;;;;4.20;1.55;;;;;;;22.32;36.31;99960.00;4494598;31;34224;-64
2022/07/13 06:20:11;;;;;;;3.20;1.80;;;;;;;22.68;36.61;99978.37;4494661;31;34003;-61
2022/07/13 06:22:39;;;;;;;4.97;1.55;;;;;;;22.65;35.68;99962.37;4493326;31;32985;-61
2022/07/13 06:25:07;;;;;;;8.00;1.70;;;;;;;22.81;35.66;99972.25;4496146;31;33694;-65
2022/07/13 06:27:34;;;;;;;6.10;1.55;;;;;;;22.30;36.18;99979.25;4496662;31;34683;-61
2022/07/13 06:30:02;;;;;;;3.25;1.60;;;;;;;22.25;36.70;99972.69;4497694;31;34747;-60
2022/07/13 06:32:30;;;;;;;4.37;1.67;;;;;;;22.83;36.17;99975.66;4490432;31;33258;-65
2022/07/13 06:34:57;;;;;;;4.60;1.80;;;;;;;23.12;35.94;99978.37;4497544;31;33505;-61
2022/07/13 06:37:28;;;;;;;6.53;1.67;;;;;;;23.27;35.88;99959.22;4496459;31;34211;-61
2022/07/13 06:40:12;;;;;;;5.00;1.83;;;;;;;23.06;35.97;99979.16;4494597;31;33962;-61
2022/07/13 06:42:43;;;;;;;9.98;1.75;;;;;;;22.57;37.08;99982.41;4489784;31;34089;-61
2022/07/13 06:45:11;;;;;;;6.70;1.65;;;;;;;23.07;36.17;99974.53;4496445;31;34636;-61
2022/07/13 06:47:39;;;;;;;7.03;1.48;;;;;;;22.90;35.85;99977.44;4495545;31;34867;-62
2022/07/13 06:50:07;;;;;;;3.35;1.60;;;;;;;23.34;36.04;99972.97;4490815;31;35159;-62
2022/07/13 06:52:37;;;;;;;4.30;1.48;;;;;;;23.38;35.80;99983.31;4491458;31;34080;-61
2022/07/13 06:55:05;;;;;;;5.05;1.58;;;;;;;23.45;35.44;99988.88;4495310;31;33132;-62
2022/07/13 06:57:33;;;;;;;3.50;1.23;;;;;;;23.37;35.88;99992.56;4494125;31;35038;-62
2022/07/13 07:00:01;;;;;;;4.43;1.45;;;;;;;23.60;36.14;99997.03;4493784;31;33904;-60
2022/07/13 07:02:29;;;;;;;7.60;1.77;;;;;;;23.63;35.93;99996.66;4496885;31;33926;-61
2022/07/13 07:04:56;;;;;;;8.93;1.60;;;;;;;23.31;35.90;99993.34;4490396;31;34754;-63
2022/07/13 07:07:24;;;;;;;2.17;1.20;;;;;;;23.92;34.91;99984.78;4492198;31;34813;-59
2022/07/13 07:09:51;;;;;;;4.18;1.23;;;;;;;23.49;35.22;99985.53;4493471;31;35599;-62
2022/07/13 07:12:19;;;;;;;4.90;1.20;;;;;;;23.76;35.80;99983.16;4483337;31;32672;-62
2022/07/13 07:14:46;;;;;;;5.80;1.40;;;;;;;23.81;34.51;99982.56;4484717;31;34759;-63
2022/07/13 07:17:16;;;;;;;3.22;1.52;;;;;;;24.14;34.25;99978.25;4492334;31;33717;-63
2022/07/13 07:19:44;;;;;;;4.65;1.48;;;;;;;24.09;34.23;99983.47;4496695;31;32497;-62
2022/07/13 07:22:13;;;;;;;2.87;1.40;;;;;;;24.31;34.43;99981.53;4493368;31;31377;-61
2022/07/13 07:24:41;;;;;;;4.87;1.50;;;;;;;24.07;34.54;99979.22;4494706;31;33453;-62
2022/07/13 07:27:10;;;;;;;2.83;1.27;;;;;;;24.47;33.66;99974.12;4485881;31;35390;-65
2022/07/13 07:29:38;;;;;;;4.25;1.77;;;;;;;24.54;34.48;99975.00;4498676;31;35069;-62
2022/07/13 07:32:05;;;;;;;3.28;1.48;;;;;;;24.38;33.60;99970.66;4493937;31;35184;-61
2022/07/13 07:34:33;;;;;;;3.33;1.42;;;;;;;24.32;34.12;99975.03;4496750;31;34459;-64
2022/07/13 07:37:01;;;;;;;3.80;1.50;;;;;;;24.30;34.10;99965.31;4496177;31;33870;-60
2022/07/13 07:39:29;;;;;;;4.65;1.98;;;;;;;24.54;34.23;99961.34;4496731;31;35687;-60
2022/07/13 07:41:57;;;;;;;3.67;1.50;;;;;;;25.13;33.63;99957.25;4495515;31;35024;-63
2022/07/13 07:44:24;;;;;;;4.32;1.42;;;;;;;25.55;32.31;99946.03;4499431;31;33643;-61
2022/07/13 07:46:53;;;;;;;4.85;1.77;;;;;;;25.29;32.61;99944.03;4497401;31;34792;-62
2022/07/13 07:49:21;;;;;;;4.00;1.67;;;;;;;24.86;33.93;99951.62;4496943;31;32723;-60
2022/07/13 07:51:49;;;;;;;6.97;1.60;;;;;;;25.48;32.61;99961.59;4497498;31;35236;-60
2022/07/13 07:54:36;;;;;;;5.90;1.50;;;;;;;25.77;31.98;99957.66;4496064;31;32325;-61
2022/07/13 07:57:04;;;;;;;5.70;1.77;;;;;;;25.91;31.41;99964.03;4493343;31;35017;-60
2022/07/13 07:59:31;;;;;;;3.80;1.40;;;;;;;25.68;31.59;99961.66;4496378;31;32730;-61
2022/07/13 08:01:59;;;;;;;5.57;1.85;;;;;;;25.67;31.60;99957.22;4495003;31;32865;-63
2022/07/13 08:04:27;;;;;;;5.07;1.20;;;;;;;25.83;32.20;99952.44;4497107;31;32478;-60
2022/07/13 08:06:54;;;;;;;2.62;1.10;;;;;;;25.81;31.61;99952.66;4496917;31;33659;-60
2022/07/13 08:09:22;;;;;;;8.52;1.55;;;;;;;26.15;31.63;99951.59;4499145;31;32836;-61
2022/07/13 08:11:50;;;;;;;7.20;1.08;;;;;;;25.99;31.81;99949.28;4488570;31;34283;-61
2022/07/13 08:14:18;;;;;;;2.83;1.25;;;;;;;25.78;31.71;99945.66;4496564;31;32243;-64
2022/07/13 08:16:45;;;;;;;7.30;1.45;;;;;;;25.74;32.28;99929.81;4501301;31;32745;-64
2022/07/13 08:19:13;;;;;;;2.05;1.00;;;;;;;25.58;32.35;99928.31;4500036;31;35139;-63
2022/07/13 08:22:01;;;;;;;2.45;1.30;;;;;;;25.79;32.41;99941.00;4498187;31;34180;-66
2022/07/13 08:24:29;;;;;;;7.05;1.30;;;;;;;26.07;32.34;99937.22;4497273;31;33332;-62
2022/07/13 08:26:57;;;;;;;5.10;1.45;;;;;;;25.83;33.17;99941.47;4501124;31;33127;-65
2022/07/13 08:29:24;;;;;;;3.40;1.35;;;;;;;26.09;32.51;99935.97;4500385;31;35089;-62
2022/07/13 08:31:52;;;;;;;2.97;1.20;;;;;;;26.08;32.46;99927.97;4491801;31;34312;-64
2022/07/13 08:39:52;;;;;;;2.08;1.02;;;;;;;26.36;31.59;99917.63;4499816;31;32764;-64
2022/07/13 08:42:20;;;;;;;3.50;1.10;;;;;;;26.64;31.19;99925.59;4498775;31;32817;-66
2022/07/13 08:44:48;;;;;;;2.67;1.10;;;;;;;26.52;31.42;99918.22;4499745;31;34809;-66
2022/07/13 08:47:17;;;;;;;4.05;1.40;;;;;;;26.72;31.75;99916.28;4493044;31;33944;-67
2022/07/13 08:49:45;;;;;;;2.53;1.05;;;;;;;26.77;31.62;99907.41;4500695;31;33806;-65
2022/07/13 08:52:13;;;;;;;4.07;1.62;;;;;;;26.63;30.97;99917.59;4483002;31;31525;-62
2022/07/13 08:54:41;;;;;;;4.60;1.42;;;;;;;26.33;31.47;99912.56;4486566;31;31072;-61
2022/07/13 08:57:09;;;;;;;9.88;1.52;;;;;;;26.58;31.57;99910.00;4490013;31;33691;-60
2022/07/13 08:59:37;;;;;;;8.10;1.55;;;;;;;26.88;30.60;99904.84;4497410;31;34029;-62
2022/07/13 09:02:04;;;;;;;5.10;1.35;;;;;;;27.06;30.02;99915.13;4483361;31;33665;-63
2022/07/13 09:04:32;;;;;;;2.97;1.35;;;;;;;27.18;30.42;99913.38;4483777;31;33455;-62
2022/07/13 09:07:00;;;;;;;3.58;1.12;;;;;;;27.31;30.83;99911.63;4493486;31;33865;-61
2022/07/13 09:09:31;;;;;;;5.15;1.12;;;;;;;27.13;30.23;99920.59;4483561;31;33300;-62
2022/07/13 09:12:20;;;;;;;3.30;1.50;;;;;;;27.59;29.77;99901.09;4489198;31;33627;-62
2022/07/13 09:15:02;;;;;;;23.52;3.10;;;;;;;26.94;30.46;99901.22;4499840;31;33958;-61
2022/07/13 09:17:44;;;;;;;4.72;1.27;;;;;;;27.03;30.85;99895.47;4496395;31;32612;-63
2022/07/13 09:20:12;;;;;;;6.25;1.58;;;;;;;27.81;29.08;99882.34;4497407;31;33877;-63
2022/07/13 09:22:53;;;;;;;6.15;1.65;;;;;;;28.10;29.26;99894.59;4493828;31;34861;-64
2022/07/13 09:25:28;;;;;;;7.00;1.48;;;;;;;27.78;29.42;99882.78;4487480;31;31995;-65
2022/07/13 09:28:00;;;;;;;3.35;1.27;;;;;;;28.12;28.02;99886.09;4499793;31;34357;-62
2022/07/13 09:30:28;;;;;;;4.07;1.30;;;;;;;27.78;28.38;99887.47;4495234;31;34903;-65
2022/07/13 09:32:57;;;;;;;2.67;1.35;;;;;;;27.81;28.23;99885.09;4487644;31;33677;-61
2022/07/13 09:35:40;;;;;;;2.12;1.00;;;;;;;27.58;28.64;99885.66;4497863;31;32515;-64
2022/07/13 09:38:09;;;;;;;7.30;1.33;;;;;;;28.19;27.89;99894.31;4488462;31;33821;-62
2022/07/13 09:40:37;;;;;;;5.78;1.42;;;;;;;28.23;28.19;99896.38;4496720;31;34010;-64
2022/07/13 09:46:09;;;;;;;2.83;1.08;;;;;;;27.98;27.42;99896.38;4499235;31;33644;-64
2022/07/13 09:48:37;;;;;;;9.35;3.78;;;;;;;28.07;27.15;99905.19;4498170;31;32128;-64
2022/07/13 09:51:05;;;;;;;3.55;1.10;;;;;;;28.47;27.62;99899.34;4499414;31;33201;-66
2022/07/13 09:53:33;;;;;;;4.60;1.48;;;;;;;28.90;26.75;99893.75;4498504;31;34410;-64
2022/07/13 09:56:03;;;;;;;4.00;1.17;;;;;;;28.58;26.79;99893.09;4496535;31;32435;-64
2022/07/13 09:58:32;;;;;;;3.12;0.95;;;;;;;28.90;26.04;99885.50;4499192;31;34982;-62
2022/07/13 10:01:03;;;;;;;3.15;0.93;;;;;;;28.73;26.53;99889.94;4500305;31;32454;-62
2022/07/13 10:03:31;;;;;;;2.50;1.00;;;;;;;28.82;26.65;99879.44;4490248;31;32731;-61
2022/07/13 10:06:00;;;;;;;1.73;0.95;;;;;;;28.52;26.24;99885.75;4498633;31;32585;-63
2022/07/13 10:08:28;;;;;;;3.00;1.20;;;;;;;29.18;25.60;99889.59;4497018;31;35144;-63
2022/07/13 10:10:56;;;;;;;2.62;1.02;;;;;;;29.49;24.89;99883.84;4493767;31;33982;-66
2022/07/13 10:13:23;;;;;;;4.03;1.10;;;;;;;29.45;25.70;99868.03;4484936;31;33843;-63
2022/07/13 10:15:51;;;;;;;2.70;1.35;;;;;;;29.79;25.84;99871.13;4497216;31;34596;-64
2022/07/13 10:18:22;;;;;;;2.22;0.95;;;;;;;29.24;26.22;99872.13;4487198;31;32443;-65
2022/07/13 10:21:00;;;;;;;3.25;1.00;;;;;;;29.22;25.67;99871.53;4495712;31;35332;-64
2022/07/13 10:23:34;;;;;;;4.20;1.00;;;;;;;29.62;24.96;99866.28;4493946;31;34997;-62
2022/07/13 10:26:21;;;;;;;4.95;1.02;;;;;;;29.43;25.58;99879.28;4496492;31;33665;-63
2022/07/13 10:29:14;;;;;;;3.15;1.45;;;;;;;29.66;25.80;99875.78;4486789;31;33476;-64
2022/07/13 10:31:43;;;;;;;3.40;1.20;;;;;;;30.32;24.56;99867.47;4498506;31;33784;-62
2022/07/13 10:34:12;;;;;;;3.58;1.10;;;;;;;29.93;24.31;99864.31;4495838;31;32910;-62
2022/07/13 10:36:56;;;;;;;2.92;1.17;;;;;;;29.78;24.79;99872.19;4500480;31;33550;-65
2022/07/13 10:39:25;;;;;;;4.93;0.90;;;;;;;29.79;24.70;99874.75;4497227;31;32637;-62
2022/07/13 10:42:13;;;;;;;4.22;1.08;;;;;;;30.25;24.75;99866.75;4496962;31;35273;-64
2022/07/13 10:44:42;;;;;;;5.93;1.33;;;;;;;30.78;24.43;99862.97;4490413;31;34149;-64
2022/07/13 10:47:11;;;;;;;1.87;0.90;;;;;;;30.17;24.79;99859.62;4491295;31;33683;-65
2022/07/13 10:49:52;;;;;;;5.43;1.17;;;;;;;30.99;24.45;99859.53;4498717;31;33863;-66
2022/07/13 10:52:26;;;;;;;3.45;1.52;;;;;;;30.77;23.57;99855.78;4500106;31;33901;-61
2022/07/13 10:55:09;;;;;;;3.00;1.20;;;;;;;30.77;23.67;99859.38;4497048;31;33865;-62
2022/07/13 10:57:38;;;;;;;3.37;1.12;;;;;;;30.37;23.08;99857.38;4492499;31;33551;-62
2022/07/13 11:00:23;;;;;;;2.95;0.95;;;;;;;31.02;23.18;99850.75;4493860;31;35066;-62
2022/07/13 11:02:53;;;;;;;3.45;1.05;;;;;;;31.03;23.64;99852.44;4501095;31;33871;-62
2022/07/13 11:05:26;;;;;;;5.75;1.20;;;;;;;31.24;23.47;99848.16;4494136;31;35127;-62
2022/07/13 11:07:54;;;;;;;2.58;1.00;;;;;;;30.06;23.27;99857.72;4491232;31;32154;-62
2022/07/13 11:10:23;;;;;;;4.05;1.10;;;;;;;29.79;23.66;99858.19;4488503;31;32411;-62
2022/07/13 11:13:04;;;;;;;4.35;1.08;;;;;;;30.51;23.35;99852.44;4494455;31;32465;-62
2022/07/13 11:15:52;;;;;;;2.12;0.85;;;;;;;30.47;22.91;99864.22;4496133;31;34030;-65
2022/07/13 11:18:32;;;;;;;3.17;0.90;;;;;;;30.84;21.98;99849.00;4487230;31;32778;-64
2022/07/13 11:21:03;;;;;;;4.53;1.10;;;;;;;30.30;22.29;99856.66;4495788;31;32629;-63
2022/07/13 11:26:34;;;;;;;3.72;0.93;;;;;;;30.14;21.78;99849.94;4498936;31;34063;-63
2022/07/13 11:29:11;;;;;;;1.70;0.90;;;;;;;30.15;22.14;99848.84;4483173;31;31823;-62
2022/07/13 11:31:39;;;;;;;1.85;0.82;;;;;;;30.72;22.25;99856.44;4486288;31;33591;-62
2022/07/13 11:34:07;;;;;;;2.37;0.90;;;;;;;29.91;21.81;99839.69;4485882;31;34011;-65
2022/07/13 11:36:35;;;;;;;2.42;0.90;;;;;;;30.01;20.94;99843.78;4492471;31;34079;-66
2022/07/13 11:39:03;;;;;;;1.90;1.35;;;;;;;30.17;21.69;99832.84;4489823;31;34061;-61
2022/07/13 11:41:30;;;;;;;5.75;0.90;;;;;;;30.64;21.03;99834.75;4491609;31;32478;-63
2022/07/13 11:43:58;;;;;;;2.90;0.80;;;;;;;30.83;21.48;99833.53;4491815;31;34134;-65
2022/07/13 11:46:27;;;;;;;1.25;0.90;;;;;;;30.78;21.83;99824.28;4473525;31;33689;-61
2022/07/13 11:49:04;;;;;;;2.30;1.20;;;;;;;30.71;21.09;99816.09;4495483;31;33853;-62
2022/07/13 11:51:32;;;;;;;2.28;0.90;;;;;;;30.02;21.49;99826.16;4494976;31;33817;-64
2022/07/13 11:54:10;;;;;;;2.55;0.90;;;;;;;30.56;21.30;99833.22;4496133;31;32917;-63
2022/07/13 11:56:48;;;;;;;5.12;0.70;;;;;;;30.70;20.95;99813.59;4497353;31;32712;-63